Time;durP1;ratioP1;P1;durP2;ratioP2;P2;SDS_P1;SDS_P2;PMS_P1;PMS_P2;Temp;Humidity;BMP_temperature;BMP_pressure;BME280_temperature;BME280_humidity;BME280_pressure;Samples;Min_cycle;Max_cycle;Signal;HPM_P1;HPM_P2
2021/09/05 00:01:00;;;;;;;75.78;41.00;;;18.70;99.90;;;;;;4099648;28;20220;-88
2021/09/05 00:03:00;;;;;;;76.47;42.42;;;19.00;99.90;;;;;;4115580;28;20178;-88
2021/09/05 00:05:01;;;;;;;80.55;42.22;;;19.30;99.90;;;;;;4099814;29;20214;-88
2021/09/05 00:07:02;;;;;;;80.13;44.00;;;19.50;99.90;;;;;;4115849;28;20216;-88
2021/09/05 00:09:03;;;;;;;78.93;42.83;;;19.40;99.90;;;;;;4115885;28;20194;-88
2021/09/05 00:11:04;;;;;;;84.35;43.63;;;19.30;99.90;;;;;;4131760;28;20271;-88
2021/09/05 00:13:05;;;;;;;79.55;43.13;;;19.10;99.90;;;;;;4099811;29;20175;-88
2021/09/05 00:15:07;;;;;;;87.43;44.95;;;19.20;99.90;;;;;;4116007;28;20201;-88
2021/09/05 00:17:08;;;;;;;86.57;45.28;;;19.20;99.90;;;;;;4099767;29;20531;-87
2021/09/05 00:19:09;;;;;;;93.07;45.90;;;19.10;99.90;;;;;;4131752;28;20185;-87
2021/09/05 00:21:10;;;;;;;83.45;45.50;;;18.80;99.90;;;;;;4099691;28;20242;-88
2021/09/05 00:23:13;;;;;;;87.65;45.67;;;18.50;99.90;;;;;;4115847;28;20185;-88
2021/09/05 00:25:14;;;;;;;94.43;47.97;;;18.20;99.90;;;;;;4116907;28;20210;-87
2021/09/05 00:27:15;;;;;;;95.45;45.83;;;18.10;99.90;;;;;;4103096;29;20350;-88
2021/09/05 00:29:16;;;;;;;92.88;47.80;;;18.00;99.90;;;;;;4119022;28;20171;-88
2021/09/05 00:31:17;;;;;;;90.50;46.15;;;17.90;99.90;;;;;;4102681;28;20682;-87
2021/09/05 00:33:18;;;;;;;94.05;47.67;;;18.00;99.90;;;;;;4102830;29;20214;-87
2021/09/05 00:35:19;;;;;;;98.82;46.72;;;17.90;99.90;;;;;;4118334;28;20170;-87
2021/09/05 00:37:20;;;;;;;93.78;47.17;;;17.90;99.90;;;;;;4118682;28;20174;-91
2021/09/05 00:39:20;;;;;;;95.03;47.38;;;17.70;99.90;;;;;;4118759;28;20178;-87
2021/09/05 00:41:21;;;;;;;91.97;46.53;;;17.60;99.90;;;;;;4102489;28;20195;-88
2021/09/05 00:43:22;;;;;;;96.13;48.95;;;17.50;99.90;;;;;;4134462;28;20177;-88
2021/09/05 00:45:23;;;;;;;96.85;48.55;;;17.40;99.90;;;;;;4102125;29;20710;-87
2021/09/05 00:47:23;;;;;;;95.25;47.40;;;17.40;99.90;;;;;;4118481;28;20566;-88
2021/09/05 00:49:24;;;;;;;97.95;47.75;;;17.40;99.90;;;;;;4118381;28;20185;-87
2021/09/05 00:51:34;;;;;;;96.97;49.55;;;17.50;99.90;;;;;;4118227;28;20233;-90
2021/09/05 00:53:37;;;;;;;107.38;50.38;;;17.40;99.90;;;;;;4118451;28;20511;-88
2021/09/05 00:55:39;;;;;;;94.47;45.95;;;17.40;99.90;;;;;;4118433;28;20185;-88
2021/09/05 00:57:44;;;;;;;95.82;48.92;;;17.50;99.90;;;;;;4102662;28;20186;-88
2021/09/05 00:59:48;;;;;;;105.47;47.15;;;17.50;99.90;;;;;;4134517;28;20526;-92
2021/09/05 01:01:49;;;;;;;98.18;48.20;;;17.60;99.90;;;;;;4102396;29;20258;-88
2021/09/05 01:03:50;;;;;;;95.57;49.13;;;17.60;99.90;;;;;;4118084;28;20786;-87
2021/09/05 01:05:52;;;;;;;102.10;49.55;;;17.50;99.90;;;;;;4118193;28;20171;-87
2021/09/05 01:07:53;;;;;;;106.15;49.20;;;17.50;99.90;;;;;;4118075;28;20178;-87
2021/09/05 01:09:54;;;;;;;97.57;49.05;;;17.40;99.90;;;;;;4102074;28;20262;-87
2021/09/05 01:11:58;;;;;;;101.75;49.13;;;17.40;99.90;;;;;;4118045;28;20174;-87
2021/09/05 01:14:04;;;;;;;108.75;49.83;;;17.40;99.90;;;;;;4118197;28;20264;-87
2021/09/05 01:16:05;;;;;;;106.45;49.08;;;17.30;99.90;;;;;;4102159;29;20261;-87
2021/09/05 01:18:17;;;;;;;101.10;49.38;;;17.30;99.90;;;;;;4118026;28;20627;-88
2021/09/05 01:20:42;;;;;;;99.32;49.00;;;17.30;99.90;;;;;;4117780;28;20289;-87
2021/09/05 01:23:21;;;;;;;98.47;48.60;;;17.30;99.90;;;;;;4123191;28;20166;-88
2021/09/05 01:25:40;;;;;;;109.15;52.13;;;17.20;99.90;;;;;;4120578;28;20198;-87
2021/09/05 01:28:11;;;;;;;106.82;50.05;;;17.20;99.90;;;;;;4089584;29;20171;-87
2021/09/05 01:30:45;;;;;;;113.70;52.35;;;17.20;99.90;;;;;;4100935;28;20614;-88
2021/09/05 01:33:04;;;;;;;101.82;49.80;;;17.20;99.90;;;;;;4120698;28;20189;-87
2021/09/05 01:35:18;;;;;;;104.95;50.88;;;17.20;99.90;;;;;;4119347;28;20208;-87
2021/09/05 01:37:48;;;;;;;112.00;53.05;;;17.10;99.90;;;;;;4105590;28;20182;-88
2021/09/05 01:40:15;;;;;;;104.18;49.65;;;17.00;99.90;;;;;;4118982;28;20222;-87
2021/09/05 01:42:30;;;;;;;109.85;52.55;;;17.00;99.90;;;;;;4103564;28;20178;-87
2021/09/05 01:44:54;;;;;;;120.03;52.90;;;16.90;99.90;;;;;;4133256;28;20213;-87
2021/09/05 01:47:20;;;;;;;114.60;51.58;;;16.90;99.90;;;;;;4121025;28;20178;-87
2021/09/05 01:49:59;;;;;;;117.55;53.53;;;16.90;99.90;;;;;;4069702;29;20208;-87
2021/09/05 01:52:23;;;;;;;117.65;53.53;;;17.00;99.90;;;;;;4069458;29;20181;-88
2021/09/05 01:54:42;;;;;;;113.93;52.60;;;17.10;99.90;;;;;;4085328;28;20586;-86
2021/09/05 01:57:01;;;;;;;117.85;53.90;;;17.20;99.90;;;;;;4120030;28;20189;-87
2021/09/05 01:59:41;;;;;;;121.43;52.65;;;17.30;99.90;;;;;;4069854;29;20180;-87
2021/09/05 02:02:01;;;;;;;122.22;53.15;;;17.40;99.90;;;;;;4069497;29;20180;-87
2021/09/05 02:04:21;;;;;;;121.20;53.58;;;17.40;99.90;;;;;;4084079;28;20224;-87
2021/09/05 02:06:40;;;;;;;113.43;52.47;;;17.20;99.90;;;;;;4119975;28;20242;-87
2021/09/05 02:09:09;;;;;;;114.43;54.38;;;17.20;99.90;;;;;;4121290;28;20177;-87
2021/09/05 02:11:35;;;;;;;117.97;52.75;;;17.20;99.90;;;;;;4104222;28;20189;-87
2021/09/05 02:13:59;;;;;;;121.80;53.63;;;17.20;99.90;;;;;;4106437;28;20633;-88
2021/09/05 02:16:20;;;;;;;110.75;50.80;;;17.30;99.90;;;;;;4103801;28;20175;-88
2021/09/05 02:18:32;;;;;;;112.20;51.28;;;17.30;99.90;;;;;;4133207;28;20192;-87
2021/09/05 02:20:53;;;;;;;118.65;53.78;;;17.50;99.90;;;;;;4119565;28;20558;-87
2021/09/05 02:23:20;;;;;;;125.22;54.22;;;17.50;99.90;;;;;;4104234;28;20174;-87
2021/09/05 02:25:53;;;;;;;120.20;52.08;;;17.50;99.90;;;;;;4112400;28;20193;-87
2021/09/05 02:28:13;;;;;;;126.07;53.00;;;17.40;99.90;;;;;;4119503;28;20281;-88
2021/09/05 02:30:31;;;;;;;119.95;53.15;;;17.40;99.90;;;;;;4119613;28;20193;-87
2021/09/05 02:32:50;;;;;;;124.05;55.83;;;17.40;99.90;;;;;;4103533;28;20179;-88
2021/09/05 02:35:10;;;;;;;128.63;54.60;;;17.40;99.90;;;;;;4133581;28;20552;-88
2021/09/05 02:37:40;;;;;;;129.48;53.47;;;17.50;99.90;;;;;;4104444;28;20264;-87
2021/09/05 02:39:59;;;;;;;122.75;53.50;;;17.50;99.90;;;;;;4119413;28;20238;-88
2021/09/05 02:42:29;;;;;;;118.05;53.10;;;17.40;99.90;;;;;;4104254;28;20185;-87
2021/09/05 02:44:50;;;;;;;122.53;53.63;;;17.20;99.90;;;;;;4080786;28;20306;-88
2021/09/05 02:47:09;;;;;;;130.60;55.08;;;17.00;99.90;;;;;;4118945;28;20181;-87
2021/09/05 02:49:30;;;;;;;124.50;55.35;;;16.90;99.90;;;;;;4118164;28;20178;-88
2021/09/05 02:51:49;;;;;;;129.93;56.72;;;16.80;99.90;;;;;;4102889;28;20653;-87
2021/09/05 02:54:10;;;;;;;129.95;56.38;;;16.60;99.90;;;;;;4103377;28;20177;-88
2021/09/05 02:56:30;;;;;;;139.13;57.83;;;16.50;99.90;;;;;;4119483;28;20193;-87
2021/09/05 02:59:00;;;;;;;138.68;57.13;;;16.40;99.90;;;;;;4107889;28;20177;-87
2021/09/05 03:01:36;;;;;;;140.30;57.58;;;16.40;99.90;;;;;;4109384;28;20649;-87
2021/09/05 03:03:55;;;;;;;145.52;58.78;;;16.30;99.90;;;;;;4102613;28;20175;-87
2021/09/05 03:06:18;;;;;;;144.82;58.20;;;16.10;99.90;;;;;;4132652;28;20586;-87
2021/09/05 03:08:45;;;;;;;145.07;60.35;;;16.00;99.90;;;;;;4115924;28;20213;-87
2021/09/05 03:11:01;;;;;;;164.25;61.58;;;15.90;99.90;;;;;;4101964;28;20210;-88
2021/09/05 03:13:28;;;;;;;155.93;60.58;;;15.80;99.90;;;;;;4102818;28;20653;-87
2021/09/05 03:15:46;;;;;;;148.85;59.58;;;15.70;99.90;;;;;;4118484;28;20204;-87
2021/09/05 03:18:08;;;;;;;162.00;61.88;;;15.70;99.90;;;;;;4118364;28;20182;-87
2021/09/05 03:20:47;;;;;;;164.93;62.75;;;15.60;99.90;;;;;;4112097;28;20193;-87
2021/09/05 03:23:19;;;;;;;162.23;62.28;;;15.60;99.90;;;;;;4104046;28;20848;-90
2021/09/05 03:25:35;;;;;;;164.13;63.28;;;15.50;99.90;;;;;;4132007;28;20713;-87
2021/09/05 03:28:08;;;;;;;171.50;64.88;;;15.50;99.90;;;;;;4094683;28;20181;-87
2021/09/05 03:30:45;;;;;;;183.50;64.43;;;15.60;99.90;;;;;;4104693;28;20208;-87
2021/09/05 03:33:06;;;;;;;161.23;62.35;;;15.60;99.90;;;;;;4131879;28;20178;-88
2021/09/05 03:35:25;;;;;;;166.98;63.15;;;15.70;99.90;;;;;;4118965;28;20714;-89
2021/09/05 03:37:41;;;;;;;172.82;63.35;;;15.90;99.90;;;;;;4102210;28;20190;-88
2021/09/05 03:40:00;;;;;;;162.00;62.13;;;16.10;99.90;;;;;;4115958;28;20193;-87
2021/09/05 03:42:20;;;;;;;168.65;61.45;;;16.20;99.90;;;;;;4132310;28;20173;-88
2021/09/05 03:44:40;;;;;;;184.57;66.45;;;16.20;99.90;;;;;;4102326;28;20238;-87
2021/09/05 03:47:03;;;;;;;170.68;64.03;;;16.20;99.90;;;;;;4130083;28;20185;-87
2021/09/05 03:49:19;;;;;;;170.50;65.28;;;16.10;99.90;;;;;;4118058;28;20182;-88
2021/09/05 03:51:22;;;;;;;185.13;67.32;;;16.00;99.90;;;;;;4116242;28;20321;-87
2021/09/05 03:53:26;;;;;;;181.82;67.18;;;16.00;99.90;;;;;;4100156;28;20199;-88
2021/09/05 03:55:28;;;;;;;178.27;64.65;;;16.10;99.90;;;;;;4115476;28;20226;-87
2021/09/05 03:57:31;;;;;;;185.75;64.97;;;16.20;99.90;;;;;;4132262;28;20172;-88
2021/09/05 03:59:32;;;;;;;183.93;66.97;;;16.30;99.90;;;;;;4117853;28;20181;-88
2021/09/05 04:01:35;;;;;;;186.05;65.82;;;16.40;99.90;;;;;;4103077;29;20227;-88
2021/09/05 04:03:59;;;;;;;173.38;64.22;;;16.60;99.90;;;;;;4119134;28;20177;-88
2021/09/05 04:06:02;;;;;;;169.20;62.67;;;16.70;99.90;;;;;;4119058;28;20708;-88
2021/09/05 04:10:09;;;;;;;168.05;61.42;;;16.60;99.90;;;;;;4119024;28;20277;-87
2021/09/05 04:12:10;;;;;;;159.73;61.33;;;16.60;99.90;;;;;;4103095;29;20179;-89
2021/09/05 04:14:11;;;;;;;157.27;61.65;;;16.60;99.90;;;;;;4103308;29;20170;-89
2021/09/05 04:16:12;;;;;;;160.48;60.35;;;16.60;99.90;;;;;;4103063;29;20245;-88
2021/09/05 04:18:13;;;;;;;170.88;61.80;;;16.60;99.90;;;;;;4103022;29;20619;-90
2021/09/05 04:20:13;;;;;;;163.13;61.40;;;16.50;99.90;;;;;;4103093;28;20198;-88
2021/09/05 04:22:14;;;;;;;164.73;62.55;;;16.30;99.90;;;;;;4118837;28;20174;-87
2021/09/05 04:24:15;;;;;;;183.15;64.47;;;16.10;99.90;;;;;;4118783;28;20202;-88
2021/09/05 04:26:16;;;;;;;187.35;65.85;;;15.80;99.90;;;;;;4118852;28;20558;-87
2021/09/05 04:28:17;;;;;;;176.13;65.50;;;15.70;99.90;;;;;;4118990;28;20273;-87
2021/09/05 04:30:17;;;;;;;185.77;65.53;;;15.50;99.90;;;;;;4135009;28;20224;-87
2021/09/05 04:32:20;;;;;;;198.38;67.40;;;15.40;99.90;;;;;;4135260;28;20169;-87
2021/09/05 04:34:21;;;;;;;197.20;68.05;;;15.40;99.90;;;;;;4102772;29;20175;-87
2021/09/05 04:36:21;;;;;;;199.10;67.60;;;15.30;99.90;;;;;;4134594;28;20618;-87
2021/09/05 04:38:22;;;;;;;208.05;68.32;;;15.30;99.90;;;;;;4118774;28;20594;-88
2021/09/05 04:40:23;;;;;;;199.55;69.15;;;15.30;99.90;;;;;;4118568;28;20197;-88
2021/09/05 04:42:24;;;;;;;184.57;66.78;;;15.40;99.90;;;;;;4118685;28;20166;-88
2021/09/05 04:44:24;;;;;;;204.95;69.68;;;15.40;99.90;;;;;;4102592;29;20211;-88
2021/09/05 04:46:25;;;;;;;212.75;71.13;;;15.50;99.90;;;;;;4102452;29;20178;-88
2021/09/05 04:48:26;;;;;;;193.10;66.30;;;15.50;99.90;;;;;;4118306;28;20213;-88
2021/09/05 04:50:26;;;;;;;197.57;67.63;;;15.50;99.90;;;;;;4118803;28;20205;-88
2021/09/05 04:52:27;;;;;;;205.27;71.13;;;15.40;99.90;;;;;;4102588;29;20651;-87
2021/09/05 04:54:28;;;;;;;199.57;68.35;;;15.50;99.90;;;;;;4118437;28;20178;-87
2021/09/05 04:56:29;;;;;;;204.02;69.90;;;15.50;99.90;;;;;;4102394;29;20179;-87
2021/09/05 04:58:29;;;;;;;209.73;70.95;;;15.50;99.90;;;;;;4102397;29;20167;-87
2021/09/05 05:00:30;;;;;;;199.07;68.53;;;15.50;99.90;;;;;;4118139;28;20198;-89
2021/09/05 05:02:31;;;;;;;205.32;69.85;;;15.50;99.90;;;;;;4118629;28;20179;-88
2021/09/05 05:04:31;;;;;;;202.38;68.88;;;15.50;99.90;;;;;;4117931;28;20289;-90
2021/09/05 05:06:32;;;;;;;210.27;73.10;;;15.60;99.90;;;;;;4102306;29;20179;-87
2021/09/05 05:08:34;;;;;;;190.70;69.85;;;15.60;99.90;;;;;;4102613;29;20265;-87
2021/09/05 05:10:35;;;;;;;196.75;71.68;;;15.80;99.90;;;;;;4117144;28;20215;-87
2021/09/05 05:12:36;;;;;;;192.55;71.38;;;15.90;99.90;;;;;;4118186;28;20214;-88
2021/09/05 05:14:36;;;;;;;247.10;97.32;;;16.00;99.90;;;;;;4118249;28;20170;-88
2021/09/05 05:16:37;;;;;;;238.30;95.63;;;16.10;99.90;;;;;;4102246;29;20183;-88
2021/09/05 05:18:38;;;;;;;379.80;165.25;;;16.20;99.90;;;;;;4102149;29;20167;-88
2021/09/05 05:20:39;;;;;;;355.90;177.68;;;16.30;99.90;;;;;;4117818;28;20632;-88
2021/09/05 05:22:40;;;;;;;345.17;153.80;;;16.50;99.90;;;;;;4117824;28;20534;-88
2021/09/05 05:24:40;;;;;;;318.88;142.30;;;16.60;99.90;;;;;;4117943;28;20297;-88
2021/09/05 05:26:41;;;;;;;349.75;168.30;;;16.70;99.90;;;;;;4117871;28;20173;-87
2021/09/05 05:28:42;;;;;;;304.42;132.88;;;16.70;99.90;;;;;;4101940;29;20269;-88
2021/09/05 05:30:42;;;;;;;277.83;133.77;;;16.70;99.90;;;;;;4117848;28;20186;-87
2021/09/05 05:32:43;;;;;;;241.57;108.97;;;16.60;99.90;;;;;;4117781;28;20178;-87
2021/09/05 05:34:44;;;;;;;217.00;93.15;;;16.50;99.90;;;;;;4133722;28;20180;-87
2021/09/05 05:36:45;;;;;;;226.52;101.97;;;16.40;99.90;;;;;;4101708;29;20183;-88
2021/09/05 05:38:45;;;;;;;200.30;91.18;;;16.30;99.90;;;;;;4101719;28;20608;-87
2021/09/05 05:40:46;;;;;;;158.02;64.10;;;16.20;99.90;;;;;;4101555;28;20201;-88
2021/09/05 05:42:47;;;;;;;185.90;78.47;;;16.20;99.90;;;;;;4101842;29;20627;-87
2021/09/05 05:44:48;;;;;;;172.13;72.82;;;16.20;99.90;;;;;;4117688;28;20258;-88
2021/09/05 05:46:48;;;;;;;170.38;69.65;;;16.10;99.90;;;;;;4117534;28;20166;-88
2021/09/05 05:48:49;;;;;;;151.82;59.42;;;16.00;99.90;;;;;;4101601;29;20182;-87
2021/09/05 05:50:52;;;;;;;138.35;58.15;;;16.00;99.90;;;;;;4101026;28;20269;-88
2021/09/05 05:52:52;;;;;;;154.07;59.38;;;16.00;99.90;;;;;;4117556;28;20178;-88
2021/09/05 05:54:53;;;;;;;155.35;58.38;;;16.00;99.90;;;;;;4117564;28;20635;-88
2021/09/05 05:56:54;;;;;;;139.95;56.22;;;16.10;99.90;;;;;;4117266;28;20207;-88
2021/09/05 05:58:54;;;;;;;137.02;56.92;;;16.10;99.90;;;;;;4133428;28;20229;-87
2021/09/05 06:00:55;;;;;;;138.85;54.75;;;16.10;99.90;;;;;;4101561;28;20226;-88
2021/09/05 06:02:56;;;;;;;143.10;57.08;;;16.00;99.90;;;;;;4101393;29;20171;-88
2021/09/05 06:04:57;;;;;;;136.07;56.22;;;15.90;99.90;;;;;;4101287;29;20214;-87
2021/09/05 06:06:59;;;;;;;130.38;54.58;;;16.00;99.90;;;;;;4117121;28;20173;-88
2021/09/05 06:09:00;;;;;;;138.95;55.47;;;16.00;99.90;;;;;;4101280;29;20178;-88
2021/09/05 06:11:01;;;;;;;129.48;54.25;;;16.10;99.90;;;;;;4101144;28;20297;-87
2021/09/05 06:13:02;;;;;;;130.77;55.28;;;16.00;99.90;;;;;;4101219;29;20183;-87
2021/09/05 06:15:03;;;;;;;131.73;55.67;;;16.00;99.90;;;;;;4101280;29;20230;-88
2021/09/05 06:17:04;;;;;;;133.40;55.55;;;16.10;99.90;;;;;;4117453;28;20598;-87
2021/09/05 06:19:05;;;;;;;135.07;56.25;;;16.10;99.90;;;;;;4117443;28;20185;-88
2021/09/05 06:21:06;;;;;;;129.60;54.90;;;16.20;99.90;;;;;;4101080;28;20203;-88
2021/09/05 06:23:07;;;;;;;123.88;53.97;;;16.20;99.90;;;;;;4101369;28;20182;-91
2021/09/05 06:25:08;;;;;;;128.05;55.78;;;16.40;99.90;;;;;;4133304;28;20217;-88
2021/09/05 06:27:09;;;;;;;124.00;52.80;;;16.50;99.90;;;;;;4133262;28;20181;-90
2021/09/05 06:29:09;;;;;;;123.20;54.85;;;16.60;99.90;;;;;;4101016;29;20189;-88
2021/09/05 06:31:10;;;;;;;114.80;51.53;;;16.80;99.90;;;;;;4116876;28;20198;-88
2021/09/05 06:33:11;;;;;;;112.60;50.35;;;16.80;99.90;;;;;;4100911;28;20186;-88
2021/09/05 06:35:13;;;;;;;120.63;51.90;;;16.80;99.90;;;;;;4117141;28;20627;-88
2021/09/05 06:37:14;;;;;;;108.43;49.70;;;17.00;99.90;;;;;;4100962;28;20179;-88
2021/09/05 06:39:14;;;;;;;111.70;51.22;;;17.20;99.90;;;;;;4116660;28;20178;-88
2021/09/05 06:41:15;;;;;;;105.82;48.80;;;17.30;99.90;;;;;;4100642;28;20190;-88
2021/09/05 06:43:16;;;;;;;107.47;49.95;;;17.40;99.90;;;;;;4101070;29;20201;-89
2021/09/05 06:45:17;;;;;;;104.97;48.38;;;17.30;99.90;;;;;;4116583;28;20575;-88
2021/09/05 06:47:18;;;;;;;101.15;48.30;;;17.40;99.90;;;;;;4132698;28;20221;-88
2021/09/05 06:49:19;;;;;;;96.15;48.30;;;17.40;99.90;;;;;;4100765;28;20170;-87
2021/09/05 06:51:20;;;;;;;97.40;46.97;;;17.40;99.90;;;;;;4132684;28;20189;-87
2021/09/05 06:53:20;;;;;;;98.65;46.72;;;17.40;99.90;;;;;;4100582;29;20178;-88
2021/09/05 06:55:21;;;;;;;101.40;47.20;;;17.20;99.90;;;;;;4100557;29;20711;-87
2021/09/05 06:57:22;;;;;;;104.60;49.53;;;17.10;99.90;;;;;;4132932;28;20177;-88
2021/09/05 06:59:23;;;;;;;103.88;49.88;;;17.00;99.90;;;;;;4116708;28;20566;-88
2021/09/05 07:01:23;;;;;;;104.85;49.33;;;16.80;99.90;;;;;;4116451;28;20186;-87
2021/09/05 07:03:24;;;;;;;101.30;49.00;;;16.80;99.90;;;;;;4116444;28;20181;-88
2021/09/05 07:05:25;;;;;;;103.82;48.25;;;16.70;99.90;;;;;;4100209;29;20254;-87
2021/09/05 07:07:25;;;;;;;96.03;47.95;;;16.70;99.90;;;;;;4116483;28;20291;-92
2021/09/05 07:09:26;;;;;;;90.18;45.60;;;16.80;99.90;;;;;;4100562;29;20238;-89
2021/09/05 07:11:27;;;;;;;82.50;42.88;;;17.20;99.90;;;;;;4100407;28;20210;-91
2021/09/05 07:13:28;;;;;;;74.35;42.10;;;17.80;99.90;;;;;;4100434;29;20695;-90
2021/09/05 07:15:29;;;;;;;69.00;40.10;;;18.50;99.90;;;;;;4100362;29;20699;-91
2021/09/05 07:17:30;;;;;;;67.20;38.83;;;19.10;99.90;;;;;;4100448;29;20189;-90
2021/09/05 07:19:30;;;;;;;66.40;39.40;;;19.70;99.90;;;;;;4116423;28;20248;-92
2021/09/05 07:21:31;;;;;;;57.85;36.10;;;20.20;99.90;;;;;;4100249;28;20285;-90
2021/09/05 07:23:32;;;;;;;62.80;37.97;;;20.80;99.90;;;;;;4100406;29;20643;-90
2021/09/05 07:25:33;;;;;;;61.90;36.75;;;21.00;99.90;;;;;;4100332;29;20571;-91
2021/09/05 07:27:35;;;;;;;60.15;38.08;;;21.00;99.90;;;;;;4132676;28;20652;-93
2021/09/05 07:29:36;;;;;;;58.75;35.53;;;21.20;99.90;;;;;;4100237;28;20185;-90
2021/09/05 07:31:37;;;;;;;58.08;36.75;;;21.90;99.90;;;;;;4116342;28;20538;-92
2021/09/05 07:33:38;;;;;;;59.45;35.45;;;22.70;99.90;;;;;;4115764;28;20618;-91
2021/09/05 07:35:39;;;;;;;52.85;35.05;;;22.40;99.90;;;;;;4100330;28;20226;-91
2021/09/05 07:37:43;;;;;;;51.55;34.40;;;22.00;99.90;;;;;;4100190;29;20185;-90
2021/09/05 07:39:44;;;;;;;56.28;34.72;;;22.80;99.90;;;;;;4116191;28;20178;-92
2021/09/05 07:41:45;;;;;;;53.13;35.63;;;23.30;99.90;;;;;;4131695;28;20174;-90
2021/09/05 07:43:46;;;;;;;53.08;34.72;;;23.50;99.90;;;;;;4100178;28;20178;-89
2021/09/05 07:45:46;;;;;;;53.40;35.65;;;24.00;99.90;;;;;;4115717;28;20212;-90
2021/09/05 07:47:47;;;;;;;53.38;35.35;;;24.30;99.90;;;;;;4115915;28;20269;-90
2021/09/05 07:49:48;;;;;;;56.25;35.72;;;24.90;99.90;;;;;;4131848;28;20169;-90
2021/09/05 07:51:49;;;;;;;52.33;35.85;;;25.60;99.90;;;;;;4099994;29;20190;-89
2021/09/05 07:53:53;;;;;;;50.88;33.22;;;25.90;99.90;;;;;;4132001;28;20166;-95
2021/09/05 07:55:54;;;;;;;50.55;34.88;;;26.30;99.90;;;;;;4099841;29;20262;-93
2021/09/05 07:57:55;;;;;;;52.10;34.58;;;26.60;99.90;;;;;;4099951;29;20508;-92
2021/09/05 07:59:56;;;;;;;53.67;33.70;;;27.00;99.90;;;;;;4100188;28;20167;-94
2021/09/05 08:01:57;;;;;;;53.83;34.80;;;27.60;99.90;;;;;;4116121;28;20226;-93
2021/09/05 08:03:57;;;;;;;47.10;33.60;;;28.20;99.90;;;;;;4099855;29;20174;-93
2021/09/05 08:05:58;;;;;;;49.55;35.35;;;27.90;99.90;;;;;;4115896;28;20269;-93
2021/09/05 08:07:59;;;;;;;47.63;34.13;;;27.90;99.90;;;;;;4099914;29;20175;-93
2021/09/05 08:10:00;;;;;;;52.55;34.13;;;28.20;99.90;;;;;;4115643;28;20201;-95
2021/09/05 08:12:01;;;;;;;50.55;34.17;;;28.10;99.90;;;;;;4100184;29;20174;-95
2021/09/05 08:14:02;;;;;;;49.80;34.72;;;28.20;99.90;;;;;;4100221;29;20201;-92
2021/09/05 08:16:03;;;;;;;51.95;34.83;;;28.30;99.90;;;;;;4132082;28;20186;-94
2021/09/05 08:18:04;;;;;;;52.38;35.70;;;28.00;99.90;;;;;;4099938;29;20640;-92
2021/09/05 08:20:06;;;;;;;52.22;34.70;;;27.60;99.90;;;;;;4115696;28;20363;-92
2021/09/05 08:22:06;;;;;;;57.95;35.53;;;27.00;99.90;;;;;;4099804;29;20175;-92
2021/09/05 08:24:07;;;;;;;51.15;32.92;;;26.30;99.90;;;;;;4099866;29;20175;-92
2021/09/05 08:26:12;;;;;;;47.90;33.88;;;26.60;99.90;;;;;;4115560;28;20177;-94
2021/09/05 08:28:13;;;;;;;51.53;32.58;;;27.00;99.90;;;;;;4115792;28;20179;-93
2021/09/05 08:30:14;;;;;;;56.63;32.78;;;26.60;99.90;;;;;;4115618;28;20765;-92
2021/09/05 08:32:15;;;;;;;49.70;32.63;;;26.60;99.90;;;;;;4115678;28;20259;-93
2021/09/05 08:34:15;;;;;;;49.95;34.08;;;26.60;99.90;;;;;;4099570;28;20672;-92
2021/09/05 08:36:16;;;;;;;50.08;33.28;;;25.90;99.90;;;;;;4131576;28;20182;-91
2021/09/05 08:38:17;;;;;;;49.15;33.28;;;25.30;99.90;;;;;;4115705;28;20631;-92
2021/09/05 08:40:21;;;;;;;50.30;32.70;;;24.80;99.90;;;;;;4115437;28;20199;-91
2021/09/05 08:42:22;;;;;;;47.97;32.25;;;24.50;99.90;;;;;;4115834;28;20178;-89
2021/09/05 08:44:24;;;;;;;48.60;32.15;;;24.60;99.90;;;;;;4099755;29;20210;-90
2021/09/05 08:46:25;;;;;;;48.63;31.42;;;24.80;99.90;;;;;;4133028;28;20272;-94
2021/09/05 08:48:26;;;;;;;47.83;31.20;;;25.20;99.90;;;;;;4118865;28;20171;-93
2021/09/05 08:50:27;;;;;;;44.67;30.17;;;25.60;99.90;;;;;;4102440;28;20198;-93
2021/09/05 08:52:28;;;;;;;48.58;32.70;;;25.80;99.90;;;;;;4134906;28;20205;-92
2021/09/05 08:54:29;;;;;;;47.88;29.83;;;26.00;99.90;;;;;;4102788;29;20619;-91
2021/09/05 08:56:29;;;;;;;48.15;30.45;;;25.90;99.90;;;;;;4118441;28;20170;-90
2021/09/05 08:58:30;;;;;;;48.03;31.05;;;25.80;99.90;;;;;;4102567;28;20194;-91
2021/09/05 09:00:33;;;;;;;44.05;30.90;;;25.90;99.90;;;;;;4118417;28;20313;-90
2021/09/05 09:02:45;;;;;;;46.35;30.13;;;25.80;99.90;;;;;;4102525;29;20253;-90
2021/09/05 09:04:49;;;;;;;46.80;30.17;;;25.70;99.90;;;;;;4118518;28;20224;-90
2021/09/05 09:06:50;;;;;;;47.45;30.35;;;25.70;99.90;;;;;;4118140;28;20182;-90
2021/09/05 09:08:55;;;;;;;42.63;29.48;;;25.40;99.90;;;;;;4102507;29;20171;-90
2021/09/05 09:11:04;;;;;;;43.22;28.10;;;25.40;99.90;;;;;;4118257;28;20209;-93
2021/09/05 09:13:05;;;;;;;40.38;27.27;;;25.50;99.90;;;;;;4102539;29;20170;-90
2021/09/05 09:15:27;;;;;;;40.35;26.98;;;25.40;99.90;;;;;;4102381;29;20539;-90
2021/09/05 09:17:38;;;;;;;39.30;26.35;;;25.10;99.90;;;;;;4102767;29;20166;-91
2021/09/05 09:19:44;;;;;;;39.25;27.15;;;25.80;99.90;;;;;;4102206;28;20214;-91
2021/09/05 09:21:44;;;;;;;43.13;27.70;;;26.30;99.90;;;;;;4102427;29;20258;-90
2021/09/05 09:23:45;;;;;;;38.90;27.85;;;26.80;99.90;;;;;;4118300;28;20182;-89
2021/09/05 09:26:13;;;;;;;45.72;28.67;;;27.10;99.90;;;;;;4101879;29;20219;-90
2021/09/05 09:28:34;;;;;;;39.53;28.63;;;27.00;99.90;;;;;;4099123;29;20270;-91
2021/09/05 09:30:35;;;;;;;39.33;26.95;;;26.60;99.90;;;;;;4101975;28;20202;-90
2021/09/05 09:32:36;;;;;;;40.53;26.23;;;25.90;99.90;;;;;;4102354;29;20171;-89
2021/09/05 09:34:38;;;;;;;37.25;24.92;;;25.60;99.90;;;;;;4102185;29;20186;-93
2021/09/05 09:36:39;;;;;;;35.45;25.17;;;25.80;99.90;;;;;;4118001;28;20745;-89
2021/09/05 09:38:58;;;;;;;34.42;23.73;;;25.90;99.90;;;;;;4117986;28;20264;-93
2021/09/05 09:41:06;;;;;;;38.92;25.15;;;25.80;99.90;;;;;;4101854;28;20199;-91
2021/09/05 09:43:21;;;;;;;39.90;25.38;;;26.00;99.90;;;;;;4102028;29;20166;-92
2021/09/05 09:45:21;;;;;;;37.33;23.08;;;26.20;99.90;;;;;;4133950;28;20212;-93
2021/09/05 09:47:22;;;;;;;36.90;23.88;;;26.40;99.90;;;;;;4102109;28;20219;-93
2021/09/05 09:49:24;;;;;;;34.78;23.38;;;25.50;99.90;;;;;;4102213;29;20710;-90
2021/09/05 09:51:26;;;;;;;34.90;23.83;;;25.60;99.90;;;;;;4102009;28;20690;-92
2021/09/05 09:53:28;;;;;;;35.67;24.58;;;26.10;99.90;;;;;;4117922;28;20603;-93
2021/09/05 09:55:29;;;;;;;31.70;21.92;;;26.50;99.90;;;;;;4118023;28;20188;-92
2021/09/05 09:57:30;;;;;;;33.17;22.13;;;26.20;99.90;;;;;;4117466;28;20207;-92
2021/09/05 09:59:31;;;;;;;34.22;23.00;;;26.10;99.90;;;;;;4101874;29;20258;-93
2021/09/05 10:01:33;;;;;;;32.05;23.05;;;25.90;99.90;;;;;;4101786;28;20693;-92
2021/09/05 10:03:36;;;;;;;34.72;23.65;;;25.80;99.90;;;;;;4133886;28;20720;-89
2021/09/05 10:05:39;;;;;;;32.83;22.88;;;25.50;99.90;;;;;;4117559;28;20213;-91
2021/09/05 10:07:41;;;;;;;33.45;22.65;;;25.00;99.90;;;;;;4133814;28;20176;-91
2021/09/05 10:09:42;;;;;;;36.50;23.15;;;24.70;99.90;;;;;;4117296;28;20182;-91
2021/09/05 10:11:43;;;;;;;35.15;22.10;;;24.50;99.90;;;;;;4101442;29;20200;-91
2021/09/05 10:13:44;;;;;;;32.88;20.27;;;24.50;99.90;;;;;;4117613;28;20594;-90
2021/09/05 10:15:45;;;;;;;36.90;23.10;;;24.50;99.90;;;;;;4117512;28;20565;-91
2021/09/05 10:17:47;;;;;;;32.35;21.23;;;24.60;99.90;;;;;;4117389;28;20209;-91
2021/09/05 10:19:49;;;;;;;38.05;22.85;;;24.60;99.90;;;;;;4101613;28;20246;-92
2021/09/05 10:21:50;;;;;;;36.28;23.40;;;24.70;99.90;;;;;;4117432;28;20167;-93
2021/09/05 10:23:54;;;;;;;35.85;22.75;;;24.70;99.90;;;;;;4117450;28;20180;-91
2021/09/05 10:25:56;;;;;;;33.45;23.35;;;24.50;99.90;;;;;;4117284;28;20214;-91
2021/09/05 10:27:57;;;;;;;34.42;24.02;;;24.20;99.90;;;;;;4101378;28;20171;-91
2021/09/05 10:30:24;;;;;;;38.38;22.75;;;23.90;99.90;;;;;;4117125;28;20253;-90
2021/09/05 10:32:45;;;;;;;41.53;22.88;;;23.80;99.90;;;;;;4097885;29;20212;-90
2021/09/05 10:34:45;;;;;;;31.85;20.77;;;23.90;99.90;;;;;;4117184;28;20182;-90
2021/09/05 10:36:46;;;;;;;36.30;23.42;;;24.00;99.90;;;;;;4101291;29;20175;-92
2021/09/05 10:38:48;;;;;;;33.80;22.05;;;24.10;99.90;;;;;;4117293;28;20182;-90